Chichibu, Japan

12:25 PM JST on April 02, 2015 (GMT +0900)
Chofu | | Change Station
CLOSE
Current Station
Airport
Location: Chofu,
Elevation: 144 ft
Nearby Weather Stations

Elev 144 ft 35.67 °N, 139.53 °E | Updated 25 minutes ago

Partly Cloudy
Partly Cloudy
59 °F
Feels Like 59 °F
N
5
Wind Variable Wind from Variable

Today
High -- | Low -- °F
--% Chance of Precip.
Yesterday
High -- | Low -- °F
Precip. -- in
5:29 AM 6:05 PM
Waxing Gibbous, 95% visible
Pressure 30.12 in
Visibility 6.2 miles
Clouds Few 3000 ft
Dew Point 37 °F
Humidity 45%
Rainfall 0.00 in
Snow Depth Not available.
UV 9 out of 12
Pollen Not available.
Air Quality Not available.
Flu Activity Not available.
METAR RJTF 020300Z VRB04KT 9999 FEW030 15/03 Q1020

More Conditions Fewer Conditions

Pressure 30.12 in
Visibility 6.2 miles
Clouds Few 3000 ft
Dew Point 37 °F
Humidity 45%
Rainfall 0.00 in
Snow Depth Not available.
UV 9 out of 12
Pollen Not available.
Air Quality Not available.
Flu Activity Not available.
METAR RJTF 020300Z VRB04KT 9999 FEW030 15/03 Q1020

More Conditions Fewer Conditions

10-Day Weather Forecast

Almanac

Astronomy

Apr. 02, 2015 Rise Set
Actual Time
Civil Twilight
Nautical Twilight
Astronomical Twilight
Moon
Length of Visible Light
Length of Day
Tomorrow will be .
, % of the Moon is Illuminated

Today's Extremes

Country Highs Country Lows

Community

WunderPhotos

Upload Photos

1,810,184 photos uploaded!

WunderBlogs® & News

Nearby

Air Quality

  Air Quality AQ Index Pollutant
Not available.

Snow Depth

Station Depth Elevation

Earthquake Activity

City Distance Mag. Time & Date
Minimum magnitude displayed is 2.5.

Coastal Water Temperatures

Place Temperature

Stations

Nearby Weather Stations

Station Location Temp. Windchill Dew Point Humidity Wind Precip. Elev Updated Type